Time;durP1;ratioP1;P1;durP2;ratioP2;P2;SDS_P1;SDS_P2;PMS_P1;PMS_P2;Temp;Humidity;BMP_temperature;BMP_pressure;BME280_temperature;BME280_humidity;BME280_pressure;Samples;Min_cycle;Max_cycle;Signal;HPM_P1;HPM_P2
2021/03/25 00:01:35;;;;;;;29.10;16.63;;;;;;;10.97;53.91;100199.25;5031989;28;20056;-87
2021/03/25 00:04:02;;;;;;;31.95;17.00;;;;;;;10.95;53.92;100196.69;5032137;28;20481;-87
2021/03/25 00:06:29;;;;;;;35.33;18.73;;;;;;;10.92;54.00;100196.00;5032071;28;20045;-87
2021/03/25 00:08:55;;;;;;;36.05;18.35;;;;;;;10.89;53.75;100193.53;5032216;28;20057;-87
2021/03/25 00:11:22;;;;;;;33.05;18.88;;;;;;;10.84;53.77;100193.75;5033268;28;20494;-87
2021/03/25 00:13:48;;;;;;;35.53;18.80;;;;;;;10.78;53.84;100189.69;5033096;28;20437;-87
2021/03/25 00:16:14;;;;;;;32.25;19.17;;;;;;;10.72;54.37;100189.97;5032151;28;20054;-86
2021/03/25 00:18:40;;;;;;;39.65;21.42;;;;;;;10.67;54.24;100184.94;5031966;28;20046;-86
2021/03/25 00:21:09;;;;;;;40.30;20.73;;;;;;;10.63;54.56;100179.91;5032126;28;20417;-86
2021/03/25 00:23:36;;;;;;;40.15;21.05;;;;;;;10.60;54.62;100183.56;5032016;28;20060;-87
2021/03/25 00:26:03;;;;;;;40.70;21.92;;;;;;;10.58;54.73;100180.13;5031977;28;20057;-87
2021/03/25 00:28:29;;;;;;;41.60;22.30;;;;;;;10.58;54.87;100184.56;5031945;28;20065;-87
2021/03/25 00:30:55;;;;;;;36.72;19.60;;;;;;;10.57;54.65;100188.97;5031942;28;20049;-87
2021/03/25 00:33:22;;;;;;;41.03;23.42;;;;;;;10.53;54.37;100188.28;5034488;28;20129;-87
2021/03/25 00:35:50;;;;;;;47.00;23.50;;;;;;;10.48;54.55;100185.03;5035751;28;20081;-87
2021/03/25 00:38:17;;;;;;;44.08;23.52;;;;;;;10.40;54.67;100180.09;5035620;28;20054;-87
2021/03/25 00:40:45;;;;;;;52.13;24.45;;;;;;;10.33;55.05;100183.97;5036977;28;20104;-87
2021/03/25 00:43:12;;;;;;;50.25;24.65;;;;;;;10.26;55.16;100188.69;5035790;28;20441;-86
2021/03/25 00:45:45;;;;;;;45.38;22.23;;;;;;;10.18;55.31;100180.31;5035559;28;20053;-87
2021/03/25 00:48:12;;;;;;;41.20;22.83;;;;;;;10.14;55.37;100176.13;5035455;28;20612;-87
2021/03/25 00:50:42;;;;;;;43.83;22.95;;;;;;;10.08;55.47;100177.25;5036822;28;20056;-86
2021/03/25 00:53:10;;;;;;;38.42;21.13;;;;;;;10.05;55.60;100180.03;5035568;28;20487;-86
2021/03/25 00:55:37;;;;;;;37.08;20.75;;;;;;;10.04;55.71;100186.22;5036320;28;20088;-86
2021/03/25 00:58:04;;;;;;;48.00;24.20;;;;;;;10.03;55.75;100184.53;5036532;28;20068;-87
2021/03/25 01:00:33;;;;;;;43.72;22.88;;;;;;;10.00;55.96;100182.91;5035399;28;20057;-87
2021/03/25 01:03:00;;;;;;;49.70;22.65;;;;;;;9.98;55.79;100186.53;5035245;28;20056;-86
2021/03/25 01:05:30;;;;;;;40.35;21.98;;;;;;;9.92;56.13;100177.16;5034927;28;20087;-86
2021/03/25 01:07:57;;;;;;;37.85;20.75;;;;;;;9.90;55.93;100176.34;5036245;28;20058;-87
2021/03/25 01:10:29;;;;;;;41.50;21.70;;;;;;;9.87;56.45;100179.16;5035277;28;20129;-86
2021/03/25 01:12:58;;;;;;;39.85;21.45;;;;;;;9.86;56.23;100178.28;5035419;28;20052;-87
2021/03/25 01:15:25;;;;;;;42.30;21.00;;;;;;;9.88;56.14;100180.84;5035036;28;20053;-87
2021/03/25 01:17:54;;;;;;;43.67;20.50;;;;;;;9.88;56.25;100179.06;5035133;28;20057;-87
2021/03/25 01:20:29;;;;;;;39.72;20.75;;;;;;;9.85;56.66;100176.59;5034799;28;20498;-87
2021/03/25 01:22:57;;;;;;;39.95;20.08;;;;;;;9.86;56.41;100175.66;5036309;28;20064;-86
2021/03/25 01:25:27;;;;;;;39.90;21.65;;;;;;;9.86;56.55;100177.44;5034698;28;20060;-87
2021/03/25 01:27:58;;;;;;;39.05;20.08;;;;;;;9.84;56.60;100174.91;5034822;28;20049;-87
2021/03/25 01:30:25;;;;;;;37.63;19.75;;;;;;;9.84;56.38;100180.16;5034922;28;20107;-87
2021/03/25 01:32:52;;;;;;;40.47;20.08;;;;;;;9.85;56.85;100171.34;5034479;28;20060;-87
2021/03/25 01:35:19;;;;;;;37.30;19.65;;;;;;;9.88;56.67;100172.97;5034735;28;20052;-87
2021/03/25 01:37:47;;;;;;;39.88;20.58;;;;;;;9.91;56.83;100168.41;5034607;28;20053;-87
2021/03/25 01:40:33;;;;;;;41.80;21.50;;;;;;;9.94;56.86;100166.56;5035768;28;20060;-87
2021/03/25 01:43:25;;;;;;;44.60;21.63;;;;;;;9.95;56.88;100169.13;5035727;28;20052;-87
2021/03/25 01:46:13;;;;;;;41.53;21.50;;;;;;;9.96;56.62;100173.44;5034026;28;20065;-86
2021/03/25 01:48:40;;;;;;;42.08;22.20;;;;;;;10.01;56.66;100167.94;5034543;28;20084;-87
2021/03/25 01:51:17;;;;;;;42.00;23.05;;;;;;;10.02;57.04;100178.41;5034288;28;20057;-86
2021/03/25 01:53:51;;;;;;;37.70;20.02;;;;;;;10.02;57.11;100183.66;5034189;28;20053;-86
2021/03/25 01:56:42;;;;;;;34.00;21.17;;;;;;;10.04;57.07;100176.56;5034167;28;20053;-86
2021/03/25 01:59:23;;;;;;;40.88;21.63;;;;;;;10.10;57.14;100175.41;5034265;28;20049;-86
2021/03/25 02:02:00;;;;;;;36.70;18.70;;;;;;;10.17;57.12;100176.81;5034436;28;20107;-86
2021/03/25 02:04:46;;;;;;;29.67;17.08;;;;;;;10.21;56.82;100179.31;5035536;28;20139;-87
2021/03/25 02:07:28;;;;;;;26.42;15.77;;;;;;;10.25;56.75;100181.69;5035427;28;20060;-86
2021/03/25 02:10:09;;;;;;;35.28;17.10;;;;;;;10.29;56.82;100175.34;5034094;28;20057;-86
2021/03/25 02:12:56;;;;;;;30.88;16.95;;;;;;;10.34;56.79;100179.53;5035041;28;20052;-87
2021/03/25 02:15:34;;;;;;;33.05;17.50;;;;;;;10.38;57.21;100173.19;5035127;28;20055;-86
2021/03/25 02:18:13;;;;;;;30.30;15.55;;;;;;;10.43;56.77;100171.19;5033929;28;20049;-86
2021/03/25 02:20:42;;;;;;;35.40;17.02;;;;;;;10.48;56.87;100168.38;5033981;28;20053;-86
2021/03/25 02:23:47;;;;;;;35.72;17.70;;;;;;;10.49;56.55;100168.28;5034755;28;20052;-86
2021/03/25 02:26:18;;;;;;;33.50;16.83;;;;;;;10.57;56.58;100169.69;5033719;28;20573;-86
2021/03/25 02:29:10;;;;;;;36.13;18.60;;;;;;;10.58;56.28;100168.75;5034877;28;20057;-86
2021/03/25 02:31:42;;;;;;;34.03;18.17;;;;;;;10.62;56.48;100171.16;5034957;28;20049;-86
2021/03/25 02:34:13;;;;;;;36.20;18.05;;;;;;;10.65;56.70;100171.00;5033429;28;20068;-86
2021/03/25 02:36:50;;;;;;;36.00;19.42;;;;;;;10.67;56.70;100173.56;5033569;28;20049;-86
2021/03/25 02:39:30;;;;;;;33.13;17.67;;;;;;;10.69;56.84;100171.69;5033126;28;20049;-86
2021/03/25 02:42:11;;;;;;;31.00;16.77;;;;;;;10.76;56.86;100170.44;5034680;28;20050;-86
2021/03/25 02:44:46;;;;;;;32.80;17.50;;;;;;;10.78;56.61;100173.88;5033322;28;20506;-86
2021/03/25 02:47:13;;;;;;;33.33;18.38;;;;;;;10.84;56.59;100170.06;5033452;28;20053;-86
2021/03/25 02:49:45;;;;;;;36.63;18.52;;;;;;;10.87;56.85;100169.91;5034259;28;20426;-86
2021/03/25 02:52:20;;;;;;;36.58;18.02;;;;;;;10.90;56.70;100168.88;5033313;28;20060;-86
2021/03/25 02:54:47;;;;;;;32.60;17.55;;;;;;;10.97;56.85;100164.16;5032639;28;20080;-86
2021/03/25 02:57:27;;;;;;;33.17;18.05;;;;;;;10.97;56.41;100164.16;5034146;28;20512;-86
2021/03/25 02:59:59;;;;;;;31.58;18.25;;;;;;;11.01;56.52;100163.94;5034186;28;20057;-86
2021/03/25 03:02:28;;;;;;;32.67;18.02;;;;;;;11.06;56.60;100159.25;5034161;28;20075;-86
2021/03/25 03:05:02;;;;;;;38.58;17.80;;;;;;;11.08;56.28;100157.41;5032742;28;20053;-86
2021/03/25 03:07:43;;;;;;;32.25;17.58;;;;;;;11.10;56.58;100165.22;5033361;28;20049;-86
2021/03/25 03:10:13;;;;;;;31.35;18.30;;;;;;;11.15;56.45;100157.06;5033143;28;20049;-86
2021/03/25 03:12:45;;;;;;;32.05;19.02;;;;;;;11.17;56.65;100160.47;5032806;28;20058;-87
2021/03/25 03:15:26;;;;;;;31.33;17.13;;;;;;;11.18;56.64;100156.91;5032893;28;20509;-86
2021/03/25 03:18:20;;;;;;;32.05;17.50;;;;;;;11.18;56.38;100157.75;5032678;28;20046;-86
2021/03/25 03:20:57;;;;;;;32.78;15.98;;;;;;;11.21;56.37;100157.59;5031745;28;20490;-86
2021/03/25 03:23:25;;;;;;;32.00;17.88;;;;;;;11.24;56.76;100156.59;5032769;28;20552;-87
2021/03/25 03:25:55;;;;;;;36.38;19.55;;;;;;;11.24;56.79;100161.00;5032534;28;20054;-87
2021/03/25 03:28:35;;;;;;;36.28;18.73;;;;;;;11.21;56.49;100162.88;5032650;28;20136;-86
2021/03/25 03:31:06;;;;;;;34.47;18.75;;;;;;;11.24;56.71;100161.84;5032766;28;20072;-87
2021/03/25 03:33:38;;;;;;;37.65;20.10;;;;;;;11.23;56.91;100160.16;5031153;28;20445;-87
2021/03/25 03:36:11;;;;;;;38.70;20.58;;;;;;;11.24;56.85;100158.34;5031822;28;20067;-86
2021/03/25 03:38:40;;;;;;;44.80;22.92;;;;;;;11.25;56.88;100154.81;5081867;22;20040;-86
2021/03/25 03:41:09;;;;;;;47.97;22.75;;;;;;;11.25;56.62;100152.19;5073346;28;20040;-86
2021/03/25 03:43:37;;;;;;;48.90;26.00;;;;;;;11.25;56.66;100155.63;5055793;28;20052;-87
2021/03/25 03:46:15;;;;;;;48.40;25.08;;;;;;;11.24;56.50;100148.69;5055814;28;20048;-86
2021/03/25 03:48:50;;;;;;;52.85;27.17;;;;;;;11.23;56.37;100162.78;5055582;28;20052;-86
2021/03/25 03:51:32;;;;;;;50.55;25.52;;;;;;;11.22;56.27;100158.47;5073437;28;20572;-87
2021/03/25 03:54:01;;;;;;;45.70;25.75;;;;;;;11.25;56.27;100165.34;5073345;28;20048;-86
2021/03/25 03:56:45;;;;;;;50.88;26.85;;;;;;;11.20;56.20;100160.31;5055543;28;20048;-86
2021/03/25 03:59:27;;;;;;;57.80;26.90;;;;;;;11.16;56.19;100156.13;5055759;28;20052;-86
2021/03/25 04:02:06;;;;;;;51.25;27.13;;;;;;;11.14;56.23;100152.75;5055675;28;20049;-86
2021/03/25 04:04:39;;;;;;;47.38;25.88;;;;;;;11.13;56.30;100158.91;5055338;28;20055;-86
2021/03/25 04:07:09;;;;;;;59.13;26.90;;;;;;;11.12;56.20;100154.59;5056698;28;20471;-87
2021/03/25 04:09:45;;;;;;;54.90;26.73;;;;;;;11.08;56.57;100153.91;5044379;28;20048;-87
2021/03/25 04:12:14;;;;;;;52.60;27.17;;;;;;;11.06;56.57;100148.72;5060651;28;20086;-87
2021/03/25 04:15:00;;;;;;;53.95;28.00;;;;;;;11.00;56.65;100142.94;5060079;28;20516;-87
2021/03/25 04:17:33;;;;;;;54.70;28.35;;;;;;;11.02;56.50;100143.69;5060420;28;20044;-87
2021/03/25 04:20:08;;;;;;;54.55;28.15;;;;;;;11.01;56.86;100139.34;5060227;28;20136;-87
2021/03/25 04:22:42;;;;;;;53.47;27.38;;;;;;;10.99;56.64;100139.44;5078035;28;20058;-87
2021/03/25 04:25:16;;;;;;;49.45;26.33;;;;;;;10.99;56.89;100135.97;5059638;28;20495;-87
2021/03/25 04:27:53;;;;;;;51.33;26.23;;;;;;;10.98;57.26;100135.09;5077786;28;20053;-87
2021/03/25 04:30:34;;;;;;;48.60;27.25;;;;;;;10.99;56.88;100139.44;5059530;28;20048;-87
2021/03/25 04:33:02;;;;;;;46.35;26.63;;;;;;;11.01;57.04;100134.94;5076908;28;20048;-87
2021/03/25 04:35:29;;;;;;;53.72;26.85;;;;;;;11.04;57.15;100144.47;5059066;28;20048;-87
2021/03/25 04:37:57;;;;;;;49.45;25.08;;;;;;;11.03;57.02;100142.78;5059232;28;20052;-87
2021/03/25 04:40:30;;;;;;;51.60;27.20;;;;;;;11.05;57.01;100136.50;5058602;28;20051;-87
2021/03/25 04:42:57;;;;;;;49.27;27.33;;;;;;;11.08;56.99;100130.19;5077588;28;20049;-87
2021/03/25 04:45:41;;;;;;;54.97;28.98;;;;;;;11.06;56.67;100135.56;5076638;28;20301;-87
2021/03/25 04:48:13;;;;;;;51.55;27.02;;;;;;;11.12;56.77;100136.16;5058995;28;20048;-87
2021/03/25 04:50:45;;;;;;;60.67;30.27;;;;;;;11.12;56.92;100144.06;5059247;28;20098;-87
2021/03/25 04:53:20;;;;;;;53.33;29.30;;;;;;;11.09;56.79;100142.44;5059376;28;20045;-87
2021/03/25 04:55:46;;;;;;;61.33;31.35;;;;;;;11.11;56.63;100140.59;5059430;28;20049;-87
2021/03/25 04:58:19;;;;;;;55.72;29.08;;;;;;;11.07;56.93;100134.59;5059559;28;20056;-87
2021/03/25 05:00:45;;;;;;;60.33;30.88;;;;;;;11.07;57.13;100139.88;5059426;28;20546;-87
2021/03/25 05:03:19;;;;;;;56.30;30.13;;;;;;;11.04;56.97;100129.53;5059512;28;20051;-87
2021/03/25 05:05:47;;;;;;;74.75;36.08;;;;;;;11.05;57.36;100133.84;5077185;28;20097;-87
2021/03/25 05:08:28;;;;;;;87.70;40.83;;;;;;;11.00;57.15;100135.88;5059661;28;20060;-87
2021/03/25 05:11:05;;;;;;;85.25;42.00;;;;;;;11.00;56.72;100129.75;5059530;28;20451;-87
2021/03/25 05:13:34;;;;;;;82.13;41.20;;;;;;;10.98;56.96;100135.09;5059405;28;20052;-86
2021/03/25 05:16:23;;;;;;;75.05;39.42;;;;;;;10.92;56.96;100135.44;5058174;28;20447;-86
2021/03/25 05:18:54;;;;;;;75.13;38.33;;;;;;;10.90;57.13;100139.91;5058581;28;20412;-86
2021/03/25 05:21:31;;;;;;;81.38;39.58;;;;;;;10.86;56.98;100147.13;5058414;28;20044;-86
2021/03/25 05:24:15;;;;;;;74.47;36.17;;;;;;;10.81;57.04;100136.00;5058036;28;20051;-86
2021/03/25 05:26:50;;;;;;;59.78;33.47;;;;;;;10.80;57.18;100137.78;5076592;28;20102;-87
2021/03/25 05:29:17;;;;;;;61.38;32.08;;;;;;;10.77;57.18;100129.19;5076466;28;20052;-85
2021/03/25 05:31:45;;;;;;;62.90;33.42;;;;;;;10.73;57.17;100130.28;5058119;28;20048;-86
2021/03/25 05:34:14;;;;;;;66.03;34.42;;;;;;;10.68;57.36;100136.63;5075566;28;20072;-86
2021/03/25 05:36:40;;;;;;;62.53;33.55;;;;;;;10.66;57.33;100135.00;5075912;28;20135;-86
2021/03/25 05:39:08;;;;;;;56.95;31.45;;;;;;;10.61;57.60;100135.22;5075340;28;20048;-86
2021/03/25 05:41:48;;;;;;;65.85;33.10;;;;;;;10.58;57.73;100138.00;5075836;28;20079;-86
2021/03/25 05:45:04;;;;;;;67.45;33.75;;;;;;;10.51;57.92;100145.38;5059953;28;20047;-86
2021/03/25 05:47:42;;;;;;;64.32;32.83;;;;;;;10.49;57.60;100147.25;5057755;28;20500;-87
2021/03/25 05:50:26;;;;;;;64.45;33.75;;;;;;;10.47;58.04;100151.72;5075649;28;20049;-87
2021/03/25 05:53:01;;;;;;;98.55;39.33;;;;;;;10.46;58.03;100150.00;5075490;28;20049;-87
2021/03/25 05:55:48;;;;;;;66.80;33.78;;;;;;;10.45;58.23;100157.97;5075137;28;20057;-87
2021/03/25 05:58:14;;;;;;;58.78;32.05;;;;;;;10.46;58.23;100160.53;5075450;28;20055;-87
2021/03/25 06:00:55;;;;;;;62.78;33.53;;;;;;;10.43;58.65;100163.28;5075494;28;20060;-86
2021/03/25 06:03:23;;;;;;;65.03;34.67;;;;;;;10.49;58.27;100164.81;5057609;28;20055;-86
2021/03/25 06:05:54;;;;;;;69.30;34.55;;;;;;;10.50;58.71;100166.53;5057185;28;20048;-86
2021/03/25 06:08:33;;;;;;;67.32;34.38;;;;;;;10.51;58.47;100166.41;5057383;28;20140;-86
2021/03/25 06:11:27;;;;;;;62.53;32.53;;;;;;;10.52;58.44;100162.03;5075160;28;20052;-86
2021/03/25 06:14:07;;;;;;;64.70;33.30;;;;;;;10.54;58.35;100161.00;5056984;28;20489;-85
2021/03/25 06:16:52;;;;;;;61.10;32.70;;;;;;;10.56;58.46;100160.94;5057393;28;20070;-86
2021/03/25 06:20:12;;;;;;;60.13;32.25;;;;;;;10.57;58.39;100160.00;5057338;28;20128;-86
2021/03/25 06:22:49;;;;;;;63.13;31.05;;;;;;;10.60;58.28;100161.63;5071973;28;20044;-87
2021/03/25 06:25:51;;;;;;;59.65;30.88;;;;;;;10.60;58.35;100159.84;5057181;28;20059;-87
2021/03/25 06:28:42;;;;;;;65.40;30.63;;;;;;;10.64;58.55;100160.53;5074832;28;20386;-87
2021/03/25 06:31:18;;;;;;;66.95;33.53;;;;;;;10.70;58.65;100168.16;5074364;28;20053;-86
2021/03/25 06:34:02;;;;;;;59.78;32.88;;;;;;;10.74;58.79;100161.78;5074347;28;20515;-86
2021/03/25 06:36:54;;;;;;;62.85;33.92;;;;;;;10.76;58.37;100157.28;5056808;28;20135;-86
2021/03/25 06:39:26;;;;;;;59.78;31.38;;;;;;;10.85;58.82;100160.38;5074513;28;20068;-87
2021/03/25 06:42:06;;;;;;;61.72;32.38;;;;;;;10.91;58.77;100167.94;5074637;28;20052;-87
2021/03/25 06:44:58;;;;;;;67.28;32.25;;;;;;;10.90;58.23;100171.53;5056664;28;20123;-87
2021/03/25 06:48:18;;;;;;;60.80;33.20;;;;;;;10.94;58.00;100167.81;5074388;28;20055;-87
2021/03/25 06:50:50;;;;;;;61.30;31.70;;;;;;;10.99;58.10;100170.22;5012748;28;20050;-87
2021/03/25 06:53:31;;;;;;;65.10;34.95;;;;;;;10.97;58.13;100170.28;4996571;28;20133;-87
2021/03/25 06:56:01;;;;;;;67.65;36.45;;;;;;;11.01;58.55;100177.09;5056606;28;20048;-87
2021/03/25 06:58:32;;;;;;;72.45;39.10;;;;;;;11.01;58.58;100182.38;5056438;28;20052;-87
2021/03/25 07:01:06;;;;;;;75.22;38.75;;;;;;;11.02;58.55;100180.56;5074249;28;20052;-87
2021/03/25 07:03:33;;;;;;;79.63;40.83;;;;;;;11.04;58.63;100176.09;5056886;28;20059;-87
2021/03/25 07:06:01;;;;;;;72.80;38.30;;;;;;;11.02;58.67;100178.78;5056674;28;20140;-87
2021/03/25 07:08:31;;;;;;;79.43;39.92;;;;;;;11.03;59.01;100182.28;5056323;28;20485;-87
2021/03/25 07:11:02;;;;;;;77.40;40.38;;;;;;;11.01;58.81;100181.50;5074035;28;20053;-87
2021/03/25 07:13:40;;;;;;;78.25;40.97;;;;;;;10.98;58.90;100185.16;5056181;28;20127;-87
2021/03/25 07:16:09;;;;;;;71.45;38.17;;;;;;;10.99;59.01;100183.38;5056264;28;20057;-86
2021/03/25 07:18:50;;;;;;;79.60;40.85;;;;;;;10.95;58.93;100182.66;5056151;28;20122;-86
2021/03/25 07:21:23;;;;;;;72.75;39.47;;;;;;;10.95;59.01;100187.94;5056329;28;20060;-86
2021/03/25 07:23:49;;;;;;;86.50;43.40;;;;;;;10.95;59.13;100183.53;5056058;28;20048;-86
2021/03/25 07:26:28;;;;;;;86.50;42.97;;;;;;;10.93;59.05;100187.19;5073967;28;20052;-86
2021/03/25 07:29:10;;;;;;;86.00;42.10;;;;;;;10.91;59.51;100176.72;5073834;28;20075;-87
2021/03/25 07:31:55;;;;;;;76.85;43.20;;;;;;;10.93;59.24;100185.41;5073656;28;20048;-87
2021/03/25 07:34:41;;;;;;;82.15;40.90;;;;;;;10.91;58.93;100189.88;5056142;28;20066;-87
2021/03/25 07:37:10;;;;;;;75.47;40.58;;;;;;;10.93;59.27;100188.03;5056488;28;20413;-87
2021/03/25 07:39:48;;;;;;;87.55;43.15;;;;;;;10.93;59.45;100189.81;5055864;28;20433;-87
2021/03/25 07:42:33;;;;;;;87.30;44.47;;;;;;;10.91;59.44;100191.66;5055603;28;20048;-87
2021/03/25 07:45:29;;;;;;;84.13;43.20;;;;;;;10.91;59.40;100200.41;5056110;28;20044;-87
2021/03/25 07:48:19;;;;;;;80.72;42.33;;;;;;;10.95;59.49;100203.75;5073838;28;20053;-87
2021/03/25 07:50:47;;;;;;;87.10;43.67;;;;;;;10.97;59.58;100204.53;5056266;28;20125;-87
2021/03/25 07:53:25;;;;;;;81.57;46.03;;;;;;;10.93;59.51;100203.84;5055861;28;20408;-87
2021/03/25 07:56:08;;;;;;;85.47;44.80;;;;;;;10.93;59.60;100202.97;5073132;28;20061;-87
2021/03/25 07:58:44;;;;;;;80.80;41.65;;;;;;;10.96;59.56;100213.38;5055693;28;20045;-86
2021/03/25 08:01:13;;;;;;;79.50;42.30;;;;;;;10.98;59.56;100206.22;5055469;28;20071;-87
2021/03/25 08:04:10;;;;;;;79.88;42.28;;;;;;;10.96;59.41;100210.72;5073219;28;20052;-86
2021/03/25 08:06:38;;;;;;;74.57;39.80;;;;;;;11.01;59.48;100211.34;5060817;28;20079;-86
2021/03/25 08:09:11;;;;;;;80.53;43.13;;;;;;;11.02;59.59;100215.66;5055193;28;20063;-86
2021/03/25 08:11:56;;;;;;;82.65;43.45;;;;;;;11.02;59.46;100215.66;5055683;28;20062;-87
2021/03/25 08:14:31;;;;;;;76.75;41.38;;;;;;;11.04;59.48;100211.19;5073203;28;20382;-87
2021/03/25 08:17:11;;;;;;;82.97;41.72;;;;;;;11.06;59.57;100213.72;5055772;28;20055;-87
2021/03/25 08:20:03;;;;;;;84.70;44.50;;;;;;;11.04;59.62;100211.19;5073411;28;20048;-87
2021/03/25 08:22:42;;;;;;;76.85;41.25;;;;;;;11.06;59.55;100219.84;5073346;28;20132;-87
2021/03/25 08:25:26;;;;;;;81.50;42.83;;;;;;;11.10;59.68;100219.69;5055053;28;20049;-87
2021/03/25 08:28:13;;;;;;;77.95;41.58;;;;;;;11.11;59.97;100222.25;5055613;28;20147;-87
2021/03/25 08:30:42;;;;;;;69.90;37.55;;;;;;;11.17;59.71;100219.28;5073222;28;20076;-87
2021/03/25 08:33:41;;;;;;;76.30;40.22;;;;;;;11.17;59.58;100223.69;5073196;28;20080;-87
2021/03/25 08:36:49;;;;;;;75.50;39.70;;;;;;;11.20;59.18;100219.16;5035147;28;20123;-87
2021/03/25 08:39:53;;;;;;;81.20;39.95;;;;;;;11.23;59.22;100220.75;5055018;28;20059;-86
2021/03/25 08:42:33;;;;;;;75.68;40.03;;;;;;;11.26;59.34;100217.97;5073406;28;20477;-86
2021/03/25 08:45:37;;;;;;;78.63;41.70;;;;;;;11.27;59.34;100224.94;5073211;28;20049;-86
2021/03/25 08:48:03;;;;;;;83.57;41.25;;;;;;;11.33;59.64;100219.34;5054931;28;20136;-87
2021/03/25 08:50:52;;;;;;;82.88;42.72;;;;;;;11.33;59.09;100227.25;5055306;28;20140;-87
2021/03/25 08:53:24;;;;;;;78.68;40.08;;;;;;;11.34;59.33;100225.47;5056291;28;20063;-86
2021/03/25 08:55:55;;;;;;;75.60;40.83;;;;;;;11.37;59.19;100224.44;5076657;28;20551;-86
2021/03/25 08:58:26;;;;;;;78.65;40.20;;;;;;;11.37;59.36;100229.72;5059089;28;20060;-86
2021/03/25 09:00:59;;;;;;;83.85;42.55;;;;;;;11.38;59.39;100223.50;5059096;28;20398;-86
2021/03/25 09:03:53;;;;;;;73.88;39.47;;;;;;;11.36;59.49;100233.31;5076550;28;20053;-86
2021/03/25 09:06:20;;;;;;;78.22;40.50;;;;;;;11.41;59.61;100229.50;5059102;28;20135;-87
2021/03/25 09:08:50;;;;;;;76.53;39.90;;;;;;;11.41;59.48;100224.22;5059033;28;20063;-86
2021/03/25 09:11:19;;;;;;;78.28;41.50;;;;;;;11.44;59.35;100225.84;5076282;28;20053;-86
2021/03/25 09:13:50;;;;;;;82.28;42.45;;;;;;;11.44;59.41;100218.75;5058531;28;20052;-87
2021/03/25 09:16:24;;;;;;;81.93;43.67;;;;;;;11.43;59.22;100229.38;5058689;28;20060;-87
2021/03/25 09:18:51;;;;;;;77.78;41.83;;;;;;;11.45;59.03;100224.91;5076516;28;20053;-87
2021/03/25 09:21:27;;;;;;;79.82;43.13;;;;;;;11.41;59.07;100226.00;5058763;28;20449;-86
2021/03/25 09:23:59;;;;;;;82.65;41.20;;;;;;;11.41;59.60;100223.34;5058467;28;20052;-87
2021/03/25 09:26:25;;;;;;;78.23;41.60;;;;;;;11.43;59.62;100222.34;5076102;28;20053;-87
2021/03/25 09:29:02;;;;;;;78.88;43.50;;;;;;;11.40;59.44;100217.22;5058072;28;20514;-86
2021/03/25 09:31:41;;;;;;;84.50;43.38;;;;;;;11.41;59.62;100226.00;5076037;28;20049;-87
2021/03/25 09:34:11;;;;;;;81.03;42.70;;;;;;;11.41;59.60;100223.34;5075625;28;20386;-86
2021/03/25 09:37:03;;;;;;;90.88;44.70;;;;;;;11.37;59.52;100222.69;5075968;28;20056;-87
2021/03/25 09:39:35;;;;;;;75.70;40.28;;;;;;;11.41;59.83;100220.72;5091941;23;20411;-88
2021/03/25 09:42:23;;;;;;;83.05;43.42;;;;;;;11.42;59.91;100223.28;5076575;28;20471;-88
2021/03/25 09:45:38;;;;;;;78.45;41.00;;;;;;;11.44;59.59;100220.56;5075575;28;20045;-88
2021/03/25 09:48:05;;;;;;;81.15;40.13;;;;;;;11.51;60.25;100221.94;5042366;28;20071;-89
2021/03/25 09:50:33;;;;;;;84.45;42.40;;;;;;;11.55;60.24;100223.47;5075013;28;20055;-88
2021/03/25 09:53:11;;;;;;;72.78;38.30;;;;;;;11.57;59.83;100218.97;5076384;28;20044;-88
2021/03/25 09:55:56;;;;;;;67.80;37.03;;;;;;;11.69;60.11;100219.22;5074979;28;20091;-88
2021/03/25 09:58:56;;;;;;;63.58;34.15;;;;;;;11.72;59.40;100225.22;5075735;28;20048;-88
2021/03/25 10:01:52;;;;;;;65.35;34.10;;;;;;;11.81;58.56;100213.28;5043503;28;20408;-88
2021/03/25 10:04:24;;;;;;;61.70;32.70;;;;;;;11.91;58.91;100212.78;5076598;28;20102;-88
2021/03/25 10:07:00;;;;;;;62.40;33.67;;;;;;;11.97;58.78;100208.00;5077475;28;20088;-88
2021/03/25 10:09:48;;;;;;;62.50;33.95;;;;;;;12.03;57.77;100196.25;5075643;28;20155;-88
2021/03/25 10:12:44;;;;;;;57.53;32.10;;;;;;;12.10;57.78;100200.31;5074929;28;20428;-88
2021/03/25 10:15:29;;;;;;;62.75;32.70;;;;;;;12.18;57.74;100189.31;5074390;28;20421;-89
2021/03/25 10:18:08;;;;;;;64.32;33.38;;;;;;;12.28;58.57;100200.19;5075406;28;20049;-89
2021/03/25 10:20:44;;;;;;;58.28;32.72;;;;;;;12.36;58.43;100203.25;5076431;28;20078;-89
2021/03/25 10:23:17;;;;;;;62.30;34.15;;;;;;;12.51;58.97;100206.78;5075969;28;20059;-88
2021/03/25 10:25:43;;;;;;;56.50;32.35;;;;;;;12.68;59.00;100204.97;5076953;28;20071;-88
2021/03/25 10:28:19;;;;;;;53.72;30.00;;;;;;;12.84;57.99;100207.53;5077427;28;20489;-88
2021/03/25 10:30:45;;;;;;;59.22;30.65;;;;;;;13.03;58.33;100203.78;5074877;28;20053;-88
2021/03/25 10:33:14;;;;;;;67.43;33.47;;;;;;;13.19;57.88;100206.34;5075659;28;20070;-88
2021/03/25 10:35:52;;;;;;;60.35;33.88;;;;;;;13.33;56.61;100197.59;5075041;28;20045;-88
2021/03/25 10:38:26;;;;;;;57.65;32.85;;;;;;;13.55;57.49;100196.28;5074835;28;20055;-88
2021/03/25 10:40:56;;;;;;;;;;;;;;;13.74;55.13;100201.28;5074518;28;20048;-89
2021/03/25 10:43:30;;;;;;;59.97;32.17;;;;;;;13.94;56.04;100196.50;5074850;28;20292;-88
2021/03/25 10:46:03;;;;;;;60.08;33.80;;;;;;;14.06;56.01;100206.28;5073960;28;20493;-87
2021/03/25 10:48:36;;;;;;;61.83;34.63;;;;;;;14.20;56.48;100196.59;5074669;28;20056;-87
2021/03/25 10:51:16;;;;;;;58.28;35.00;;;;;;;14.33;55.67;100197.50;5073482;28;20278;-87
2021/03/25 10:53:49;;;;;;;64.75;35.25;;;;;;;14.50;56.55;100187.59;5073116;28;20045;-86
2021/03/25 10:56:26;;;;;;;56.67;33.08;;;;;;;14.66;54.58;100187.41;5073158;28;20048;-87
2021/03/25 10:59:07;;;;;;;58.72;33.92;;;;;;;14.84;54.50;100188.00;5073154;28;20084;-87
2021/03/25 11:01:35;;;;;;;58.03;33.10;;;;;;;15.04;55.96;100187.56;5073149;28;20063;-87
2021/03/25 11:04:24;;;;;;;54.72;32.45;;;;;;;15.19;54.13;100181.22;5072814;28;20053;-87
2021/03/25 11:06:52;;;;;;;53.45;32.97;;;;;;;15.45;55.69;100183.84;5074270;28;20052;-87
2021/03/25 11:09:27;;;;;;;60.90;34.97;;;;;;;15.66;52.20;100191.22;5074191;28;20082;-87
2021/03/25 11:12:04;;;;;;;57.60;35.80;;;;;;;15.85;52.66;100184.59;5073171;28;20059;-87
2021/03/25 11:14:34;;;;;;;58.63;35.15;;;;;;;16.07;53.89;100180.41;5072750;28;20044;-87
2021/03/25 11:17:18;;;;;;;60.80;35.55;;;;;;;16.28;52.60;100176.16;5073982;28;20048;-87
2021/03/25 11:19:51;;;;;;;56.85;34.58;;;;;;;16.62;54.27;100179.88;5072773;28;20052;-87
2021/03/25 11:22:17;;;;;;;64.47;36.22;;;;;;;17.00;55.22;100180.56;5074013;28;20056;-88
2021/03/25 11:24:44;;;;;;;55.78;35.22;;;;;;;17.42;54.94;100169.38;5073646;28;20048;-89
2021/03/25 11:27:21;;;;;;;56.70;34.78;;;;;;;17.90;52.14;100162.88;5072763;28;20064;-87
2021/03/25 11:29:48;;;;;;;50.28;33.17;;;;;;;18.44;53.16;100162.09;5074234;28;20512;-88
2021/03/25 11:32:23;;;;;;;53.78;33.08;;;;;;;18.92;48.84;100165.22;5072712;28;20045;-88
2021/03/25 11:34:54;;;;;;;50.10;31.95;;;;;;;19.36;50.10;100155.19;5073562;28;20045;-88
2021/03/25 11:37:33;;;;;;;43.75;29.63;;;;;;;19.75;47.28;100156.28;5072491;28;20045;-88
2021/03/25 11:40:10;;;;;;;44.55;30.63;;;;;;;20.10;44.71;100156.75;5074014;28;20055;-88
2021/03/25 11:42:36;;;;;;;48.65;31.77;;;;;;;20.37;46.89;100153.38;5072640;28;20049;-88
2021/03/25 11:45:04;;;;;;;41.97;28.00;;;;;;;20.57;45.31;100164.06;5073361;28;20047;-89
2021/03/25 11:47:34;;;;;;;43.22;28.48;;;;;;;20.70;43.92;100159.25;5072472;28;20051;-88
2021/03/25 11:50:09;;;;;;;46.03;29.52;;;;;;;20.81;44.19;100152.03;5072525;28;20080;-88